Time;durP1;ratioP1;P1;durP2;ratioP2;P2;SDS_P1;SDS_P2;PMS_P1;PMS_P2;Temp;Humidity;BMP_temperature;BMP_pressure;BME280_temperature;BME280_humidity;BME280_pressure;Samples;Min_cycle;Max_cycle;Signal;HPM_P1;HPM_P2
2024/01/09 00:01:08;;;;;;;2.35;2.25;;;;;;;;;;5069001;27;99632;-74
2024/01/09 00:03:35;;;;;;;2.53;2.42;;;;;;;;;;5068114;27;99131;-73
2024/01/09 00:06:01;;;;;;;2.35;2.25;;;;;;;;;;5072950;27;98726;-73
2024/01/09 00:08:28;;;;;;;2.28;1.92;;;;;;;;;;5067968;27;99970;-74
2024/01/09 00:10:54;;;;;;;1.73;1.73;;;;;;;;;;5068311;27;98278;-74
2024/01/09 00:13:21;;;;;;;2.30;2.20;;;;;;;;;;5068994;27;100059;-74
2024/01/09 00:15:47;;;;;;;2.88;2.67;;;;;;;;;;5068566;27;99974;-75
2024/01/09 00:18:14;;;;;;;7.13;2.60;;;;;;;;;;5068007;27;98155;-74
2024/01/09 00:20:40;;;;;;;3.10;2.90;;;;;;;;;;5068897;27;98709;-74
2024/01/09 00:23:07;;;;;;;2.55;2.45;;;;;;;;;;5067888;27;99004;-73
2024/01/09 00:25:33;;;;;;;2.90;2.70;;;;;;;;;;5061248;27;98255;-73
2024/01/09 00:28:00;;;;;;;1.60;1.50;;;;;;;;;;5050415;27;99640;-75
2024/01/09 00:30:26;;;;;;;8.75;2.45;;;;;;;;;;5048072;27;98187;-73
2024/01/09 00:32:53;;;;;;;2.92;2.67;;;;;;;;;;5056416;27;99635;-74
2024/01/09 00:35:19;;;;;;;3.60;2.33;;;;;;;;;;5068132;27;100076;-74
2024/01/09 00:37:46;;;;;;;2.65;2.28;;;;;;;;;;5068499;27;99215;-74
2024/01/09 00:40:12;;;;;;;3.13;2.92;;;;;;;;;;5066427;27;99631;-75
2024/01/09 00:42:39;;;;;;;2.47;2.38;;;;;;;;;;5066800;27;99949;-73
2024/01/09 00:45:06;;;;;;;2.22;2.13;;;;;;;;;;5068444;27;98202;-74
2024/01/09 00:47:33;;;;;;;2.80;2.60;;;;;;;;;;5067217;27;98488;-74
2024/01/09 00:49:59;;;;;;;2.90;2.42;;;;;;;;;;5070654;27;99063;-73
2024/01/09 00:52:26;;;;;;;2.45;2.35;;;;;;;;;;5066928;27;99567;-74
2024/01/09 00:54:52;;;;;;;2.80;2.60;;;;;;;;;;5067496;27;99985;-74
2024/01/09 00:57:19;;;;;;;2.90;2.70;;;;;;;;;;5057865;27;98302;-74
2024/01/09 00:59:46;;;;;;;2.17;2.08;;;;;;;;;;5047670;27;99427;-74
2024/01/09 01:02:13;;;;;;;1.98;1.88;;;;;;;;;;5047268;27;99818;-73
2024/01/09 01:04:39;;;;;;;2.83;2.63;;;;;;;;;;5047971;27;98194;-74
2024/01/09 01:07:06;;;;;;;2.47;2.38;;;;;;;;;;5047096;27;100106;-74
2024/01/09 01:09:32;;;;;;;2.53;2.33;;;;;;;;;;5047874;27;98958;-74
2024/01/09 01:11:59;;;;;;;2.05;1.95;;;;;;;;;;5051031;27;98228;-74
2024/01/09 01:14:25;;;;;;;2.50;2.40;;;;;;;;;;5048179;27;99951;-74
2024/01/09 01:16:52;;;;;;;3.67;2.80;;;;;;;;;;5047389;27;98308;-74
2024/01/09 01:19:18;;;;;;;2.00;1.90;;;;;;;;;;5047820;27;99408;-74
2024/01/09 01:21:45;;;;;;;2.30;2.20;;;;;;;;;;5060852;27;100286;-74
2024/01/09 01:24:11;;;;;;;4.60;2.70;;;;;;;;;;5069726;27;98287;-74
2024/01/09 01:26:38;;;;;;;3.10;2.90;;;;;;;;;;5069509;27;99465;-74
2024/01/09 01:29:05;;;;;;;2.50;2.40;;;;;;;;;;5066950;27;100262;-74
2024/01/09 01:31:31;;;;;;;2.20;2.00;;;;;;;;;;5049056;27;98261;-74
2024/01/09 01:33:58;;;;;;;2.30;2.20;;;;;;;;;;5050799;27;99557;-74
2024/01/09 01:36:25;;;;;;;2.40;2.30;;;;;;;;;;5047283;27;98987;-74
2024/01/09 01:38:52;;;;;;;2.10;1.70;;;;;;;;;;5051232;27;99555;-74
2024/01/09 01:41:19;;;;;;;3.20;2.80;;;;;;;;;;5049772;27;99967;-74
2024/01/09 01:43:45;;;;;;;2.70;2.50;;;;;;;;;;5050815;27;98289;-74
2024/01/09 01:46:12;;;;;;;2.17;2.08;;;;;;;;;;5058233;27;99455;-74
2024/01/09 01:48:39;;;;;;;2.30;2.13;;;;;;;;;;5062117;27;99909;-74
2024/01/09 01:51:06;;;;;;;3.13;2.78;;;;;;;;;;5070171;27;98539;-74
2024/01/09 01:53:33;;;;;;;2.83;2.63;;;;;;;;;;5074228;27;99282;-75
2024/01/09 01:56:00;;;;;;;2.85;2.65;;;;;;;;;;5070736;27;98408;-75
2024/01/09 01:58:29;;;;;;;3.80;2.50;;;;;;;;;;5070845;27;99804;-74
2024/01/09 02:00:55;;;;;;;2.03;1.85;;;;;;;;;;5063197;27;99092;-74
2024/01/09 02:03:22;;;;;;;4.18;2.33;;;;;;;;;;5049925;27;98192;-74
2024/01/09 02:05:49;;;;;;;2.72;2.35;;;;;;;;;;5049349;27;98526;-74
2024/01/09 02:08:18;;;;;;;3.08;2.75;;;;;;;;;;5064684;27;99134;-74
2024/01/09 02:10:44;;;;;;;5.15;3.60;;;;;;;;;;5069961;27;98312;-73
2024/01/09 02:13:12;;;;;;;1.88;1.85;;;;;;;;;;5070510;27;99649;-74
2024/01/09 02:15:38;;;;;;;2.22;2.05;;;;;;;;;;5071880;27;99022;-74
2024/01/09 02:18:05;;;;;;;3.05;2.88;;;;;;;;;;5058197;27;98616;-74
2024/01/09 02:20:31;;;;;;;1.92;1.83;;;;;;;;;;5049993;27;100193;-73
2024/01/09 02:22:58;;;;;;;3.90;3.08;;;;;;;;;;5050249;27;98346;-74
2024/01/09 02:25:24;;;;;;;3.40;3.10;;;;;;;;;;5049574;27;99409;-73
2024/01/09 02:28:01;;;;;;;2.28;2.08;;;;;;;;;;5050219;27;100324;-73
2024/01/09 02:30:28;;;;;;;2.20;2.10;;;;;;;;;;5049424;27;98423;-74
2024/01/09 02:32:54;;;;;;;2.40;2.20;;;;;;;;;;5055750;27;98620;-74
2024/01/09 02:35:21;;;;;;;2.60;2.50;;;;;;;;;;5050822;27;99188;-73
2024/01/09 02:37:48;;;;;;;3.03;2.72;;;;;;;;;;5053543;27;98246;-73
2024/01/09 02:40:14;;;;;;;1.58;1.48;;;;;;;;;;5048801;27;99869;-73
2024/01/09 02:42:40;;;;;;;2.55;2.40;;;;;;;;;;5050270;27;98232;-74
2024/01/09 02:45:07;;;;;;;5.13;2.40;;;;;;;;;;5049779;27;99522;-74
2024/01/09 02:47:33;;;;;;;1.27;1.27;;;;;;;;;;5049191;27;100233;-73
2024/01/09 02:50:00;;;;;;;4.05;3.75;;;;;;;;;;5056160;27;98583;-74
2024/01/09 02:52:27;;;;;;;2.85;2.67;;;;;;;;;;5049008;27;99684;-74
2024/01/09 02:54:53;;;;;;;2.75;2.40;;;;;;;;;;5048484;27;99051;-73
2024/01/09 02:57:20;;;;;;;2.42;2.33;;;;;;;;;;5068442;27;98183;-74
2024/01/09 02:59:46;;;;;;;2.85;2.05;;;;;;;;;;5072693;27;99390;-73
2024/01/09 03:02:13;;;;;;;3.58;2.72;;;;;;;;;;5069753;27;97965;-73
2024/01/09 03:04:39;;;;;;;2.05;1.85;;;;;;;;;;5068609;27;98622;-74
2024/01/09 03:07:05;;;;;;;2.92;2.72;;;;;;;;;;5050457;27;99229;-74
2024/01/09 03:09:33;;;;;;;3.03;2.83;;;;;;;;;;5049222;27;98300;-75
2024/01/09 03:12:00;;;;;;;2.80;2.63;;;;;;;;;;5049612;27;99570;-73
2024/01/09 03:14:26;;;;;;;1.73;1.70;;;;;;;;;;5052564;27;99859;-74
2024/01/09 03:16:52;;;;;;;1.92;1.83;;;;;;;;;;5069568;27;98235;-73
2024/01/09 03:19:19;;;;;;;2.95;2.63;;;;;;;;;;5068684;27;99667;-73
2024/01/09 03:21:45;;;;;;;4.25;2.50;;;;;;;;;;5065099;27;100125;-74
2024/01/09 03:24:12;;;;;;;2.25;2.10;;;;;;;;;;5049001;27;99433;-73
2024/01/09 03:26:38;;;;;;;3.17;2.97;;;;;;;;;;5049082;27;99083;-74
2024/01/09 03:29:05;;;;;;;2.83;2.58;;;;;;;;;;5048479;27;98318;-73
2024/01/09 03:31:31;;;;;;;2.38;2.28;;;;;;;;;;5049326;27;99705;-73
2024/01/09 03:33:58;;;;;;;2.50;2.40;;;;;;;;;;5048682;27;99861;-74
2024/01/09 03:36:25;;;;;;;2.88;2.78;;;;;;;;;;5050791;27;98260;-74
2024/01/09 03:38:52;;;;;;;2.90;2.70;;;;;;;;;;5053752;27;98610;-73
2024/01/09 03:41:19;;;;;;;4.57;2.83;;;;;;;;;;5048644;27;99960;-74
2024/01/09 03:43:45;;;;;;;3.85;2.92;;;;;;;;;;5050457;27;98842;-73
2024/01/09 03:46:12;;;;;;;4.00;2.78;;;;;;;;;;5048643;27;99967;-73
2024/01/09 03:48:38;;;;;;;3.05;2.85;;;;;;;;;;5047995;27;98566;-74
2024/01/09 03:51:04;;;;;;;2.25;2.15;;;;;;;;;;5048256;27;99356;-74
2024/01/09 03:53:31;;;;;;;4.15;2.65;;;;;;;;;;5056482;27;99757;-74
2024/01/09 03:55:57;;;;;;;2.58;2.35;;;;;;;;;;5047827;27;98362;-73
2024/01/09 03:58:24;;;;;;;4.22;2.22;;;;;;;;;;5048738;27;99877;-73
2024/01/09 04:00:50;;;;;;;2.25;2.15;;;;;;;;;;5048835;27;99826;-74
2024/01/09 04:03:17;;;;;;;2.60;2.00;;;;;;;;;;5050864;27;98208;-74
2024/01/09 04:05:44;;;;;;;2.88;2.67;;;;;;;;;;5048643;27;99977;-74
2024/01/09 04:08:12;;;;;;;3.25;2.63;;;;;;;;;;5047754;27;98213;-74
2024/01/09 04:10:39;;;;;;;2.53;2.22;;;;;;;;;;5050464;27;99503;-73
2024/01/09 04:13:05;;;;;;;2.50;2.30;;;;;;;;;;5048486;27;100476;-74
2024/01/09 04:15:32;;;;;;;2.90;2.70;;;;;;;;;;5048067;27;98197;-74
2024/01/09 04:17:58;;;;;;;2.17;2.08;;;;;;;;;;5055149;27;99795;-74
2024/01/09 04:20:25;;;;;;;4.38;2.15;;;;;;;;;;5068657;27;102039;-74
2024/01/09 04:22:51;;;;;;;2.53;2.38;;;;;;;;;;5068947;27;98234;-74
2024/01/09 04:25:18;;;;;;;2.47;2.28;;;;;;;;;;5068063;27;99463;-74
2024/01/09 04:27:44;;;;;;;3.70;2.97;;;;;;;;;;5048391;27;98008;-74
2024/01/09 04:30:11;;;;;;;2.97;1.65;;;;;;;;;;5048218;27;99166;-75
2024/01/09 04:32:37;;;;;;;2.63;2.53;;;;;;;;;;5046785;27;99998;-74
2024/01/09 04:35:04;;;;;;;1.60;1.58;;;;;;;;;;5047864;27;98289;-74
2024/01/09 04:37:30;;;;;;;3.53;3.22;;;;;;;;;;5048542;27;99867;-74
2024/01/09 04:39:57;;;;;;;2.25;2.15;;;;;;;;;;5047051;27;99876;-74
2024/01/09 04:42:23;;;;;;;2.00;1.90;;;;;;;;;;5055643;27;98015;-74
2024/01/09 04:44:50;;;;;;;3.65;2.25;;;;;;;;;;5048068;27;99749;-75
2024/01/09 04:47:16;;;;;;;2.42;2.22;;;;;;;;;;5051098;27;100574;-75
2024/01/09 04:49:43;;;;;;;3.00;2.72;;;;;;;;;;5048466;27;99429;-73
2024/01/09 04:52:09;;;;;;;3.70;3.40;;;;;;;;;;5047080;27;99925;-73
2024/01/09 04:54:36;;;;;;;2.83;2.72;;;;;;;;;;5048071;27;98301;-75
2024/01/09 04:57:03;;;;;;;4.60;2.92;;;;;;;;;;5054116;27;100058;-74
2024/01/09 04:59:29;;;;;;;2.90;2.17;;;;;;;;;;5047287;27;99093;-75
2024/01/09 05:01:56;;;;;;;2.08;1.98;;;;;;;;;;5048073;27;98748;-75
2024/01/09 05:04:22;;;;;;;1.95;1.60;;;;;;;;;;5048043;27;99904;-74
2024/01/09 05:06:50;;;;;;;2.10;2.03;;;;;;;;;;5046832;27;98981;-75
2024/01/09 05:09:16;;;;;;;2.38;2.28;;;;;;;;;;5051269;27;98512;-75
2024/01/09 05:11:43;;;;;;;2.67;2.47;;;;;;;;;;5052411;27;99988;-74
2024/01/09 05:14:09;;;;;;;4.72;3.58;;;;;;;;;;5060587;27;98285;-74
2024/01/09 05:16:36;;;;;;;3.47;3.17;;;;;;;;;;5050863;27;98786;-74
2024/01/09 05:19:02;;;;;;;2.58;2.47;;;;;;;;;;5051027;27;100104;-74
2024/01/09 05:21:30;;;;;;;2.58;2.47;;;;;;;;;;5049854;27;98218;-74
2024/01/09 05:23:56;;;;;;;2.15;2.05;;;;;;;;;;5050628;27;98487;-74
2024/01/09 05:26:23;;;;;;;2.10;2.00;;;;;;;;;;5051109;27;99943;-74
2024/01/09 05:28:49;;;;;;;2.63;2.40;;;;;;;;;;5055850;27;98174;-74
2024/01/09 05:31:16;;;;;;;1.73;1.73;;;;;;;;;;5055680;27;100485;-74
2024/01/09 05:33:42;;;;;;;2.97;2.78;;;;;;;;;;5056205;27;98295;-73
2024/01/09 05:36:09;;;;;;;2.45;2.35;;;;;;;;;;5070386;27;99524;-73
2024/01/09 05:38:35;;;;;;;3.05;2.85;;;;;;;;;;5071637;27;100201;-75
2024/01/09 05:41:02;;;;;;;2.70;2.60;;;;;;;;;;5071219;27;98236;-74
2024/01/09 05:43:28;;;;;;;6.38;2.80;;;;;;;;;;5070589;27;99772;-74
2024/01/09 05:45:55;;;;;;;2.75;2.53;;;;;;;;;;5061938;27;100161;-73
2024/01/09 05:48:21;;;;;;;2.42;2.20;;;;;;;;;;5050265;27;98211;-73
2024/01/09 05:50:48;;;;;;;2.17;2.08;;;;;;;;;;5051232;27;99396;-74
2024/01/09 05:53:14;;;;;;;2.85;2.75;;;;;;;;;;5064743;27;98843;-74
2024/01/09 05:55:41;;;;;;;2.50;2.38;;;;;;;;;;5070371;27;99757;-74
2024/01/09 05:58:07;;;;;;;3.00;2.78;;;;;;;;;;5070976;27;99980;-74
2024/01/09 06:00:35;;;;;;;2.20;2.10;;;;;;;;;;5070179;27;98309;-74
2024/01/09 06:03:02;;;;;;;2.75;2.53;;;;;;;;;;5053843;27;99497;-73
2024/01/09 06:05:29;;;;;;;2.55;2.45;;;;;;;;;;5070448;27;98828;-73
2024/01/09 06:07:55;;;;;;;2.72;2.53;;;;;;;;;;5071187;27;98338;-73
2024/01/09 06:10:22;;;;;;;1.98;1.83;;;;;;;;;;5068848;27;99981;-74
2024/01/09 06:12:48;;;;;;;2.38;2.17;;;;;;;;;;5074315;27;99935;-74
2024/01/09 06:15:15;;;;;;;2.42;2.22;;;;;;;;;;5070383;27;99686;-74
2024/01/09 06:17:41;;;;;;;4.38;2.85;;;;;;;;;;5063907;27;100145;-74
2024/01/09 06:20:08;;;;;;;1.90;1.80;;;;;;;;;;5050080;27;98262;-73
2024/01/09 06:22:35;;;;;;;2.13;2.03;;;;;;;;;;5050711;27;99496;-73
2024/01/09 06:25:01;;;;;;;3.45;3.13;;;;;;;;;;5047712;27;100297;-74
2024/01/09 06:27:28;;;;;;;2.35;2.25;;;;;;;;;;5050738;27;98233;-73
2024/01/09 06:29:54;;;;;;;2.05;1.95;;;;;;;;;;5049891;27;98852;-73
2024/01/09 06:32:21;;;;;;;3.47;2.88;;;;;;;;;;5068434;27;100232;-74
2024/01/09 06:34:48;;;;;;;2.78;2.67;;;;;;;;;;5058443;27;98241;-74
2024/01/09 06:37:14;;;;;;;3.00;2.55;;;;;;;;;;5049351;27;99077;-73
2024/01/09 06:39:41;;;;;;;5.13;3.03;;;;;;;;;;5049132;27;98747;-73
2024/01/09 06:42:08;;;;;;;4.25;2.78;;;;;;;;;;5049899;27;99517;-74
2024/01/09 06:44:34;;;;;;;2.70;2.50;;;;;;;;;;5049132;27;100581;-74
2024/01/09 06:47:01;;;;;;;3.00;2.53;;;;;;;;;;5050008;27;99589;-73
2024/01/09 06:49:27;;;;;;;6.22;3.33;;;;;;;;;;5057798;27;99460;-73
2024/01/09 06:51:54;;;;;;;8.10;4.25;;;;;;;;;;5049162;27;99926;-73
2024/01/09 06:54:21;;;;;;;4.05;3.45;;;;;;;;;;5049582;27;98924;-73
2024/01/09 06:56:47;;;;;;;2.95;2.28;;;;;;;;;;5052684;27;99056;-73
2024/01/09 06:59:13;;;;;;;2.35;2.25;;;;;;;;;;5048209;27;98286;-73
2024/01/09 07:01:40;;;;;;;2.55;2.35;;;;;;;;;;5063802;27;99554;-71
2024/01/09 07:04:07;;;;;;;6.70;2.85;;;;;;;;;;5053268;27;100368;-73
2024/01/09 07:06:33;;;;;;;4.15;2.17;;;;;;;;;;5049671;27;98721;-72
2024/01/09 07:09:00;;;;;;;2.03;1.92;;;;;;;;;;5049287;27;98593;-73
2024/01/09 07:11:27;;;;;;;5.13;2.05;;;;;;;;;;5052781;27;100294;-72
2024/01/09 07:13:53;;;;;;;0.98;0.98;;;;;;;;;;5048772;27;98446;-73
2024/01/09 07:16:20;;;;;;;2.65;2.40;;;;;;;;;;5060046;27;99629;-73
2024/01/09 07:18:47;;;;;;;2.60;2.42;;;;;;;;;;5073093;27;100378;-73
2024/01/09 07:21:13;;;;;;;2.20;2.10;;;;;;;;;;5058921;27;99533;-73
2024/01/09 07:23:40;;;;;;;2.88;2.63;;;;;;;;;;5048536;27;100262;-74
2024/01/09 07:26:07;;;;;;;6.47;2.83;;;;;;;;;;5048867;27;98282;-74
2024/01/09 07:28:33;;;;;;;2.60;2.38;;;;;;;;;;5065930;27;99534;-73
2024/01/09 07:31:02;;;;;;;3.67;2.65;;;;;;;;;;5068957;27;99824;-72
2024/01/09 07:33:29;;;;;;;2.45;2.35;;;;;;;;;;5059582;27;98862;-72
2024/01/09 07:35:55;;;;;;;3.53;3.03;;;;;;;;;;5047945;27;99474;-73
2024/01/09 07:38:24;;;;;;;3.42;3.13;;;;;;;;;;5060846;27;100279;-73
2024/01/09 07:40:51;;;;;;;3.90;2.78;;;;;;;;;;5058799;27;98946;-72
2024/01/09 07:43:17;;;;;;;2.10;1.98;;;;;;;;;;5054482;27;99954;-73
2024/01/09 07:45:44;;;;;;;5.00;3.17;;;;;;;;;;5048391;27;99031;-72
2024/01/09 07:48:10;;;;;;;4.82;2.67;;;;;;;;;;5046111;27;98796;-72
2024/01/09 07:50:37;;;;;;;2.08;1.98;;;;;;;;;;5055025;27;99597;-72
2024/01/09 07:53:03;;;;;;;3.40;3.10;;;;;;;;;;5047752;27;98979;-73
2024/01/09 07:55:31;;;;;;;2.03;1.95;;;;;;;;;;5053389;27;99441;-72
2024/01/09 07:57:59;;;;;;;5.65;2.78;;;;;;;;;;5046625;27;99565;-72
2024/01/09 08:00:25;;;;;;;2.03;2.00;;;;;;;;;;5057794;27;98282;-73
2024/01/09 08:02:52;;;;;;;2.97;2.78;;;;;;;;;;5054034;27;99925;-73
2024/01/09 08:05:21;;;;;;;3.20;3.00;;;;;;;;;;5050867;27;98381;-71
2024/01/09 08:07:48;;;;;;;2.38;2.28;;;;;;;;;;5049930;27;99981;-72
2024/01/09 08:10:16;;;;;;;2.17;2.08;;;;;;;;;;5052820;27;100218;-72
2024/01/09 08:12:42;;;;;;;2.47;2.28;;;;;;;;;;5062847;27;98339;-73
2024/01/09 08:15:09;;;;;;;1.50;1.50;;;;;;;;;;5049090;27;98683;-72
2024/01/09 08:17:35;;;;;;;2.30;2.20;;;;;;;;;;5045924;27;101661;-72
2024/01/09 08:20:03;;;;;;;3.33;1.58;;;;;;;;;;5048795;27;99843;-72
2024/01/09 08:22:30;;;;;;;1.45;1.45;;;;;;;;;;5057442;27;98633;-72
2024/01/09 08:24:56;;;;;;;3.15;2.35;;;;;;;;;;5049464;27;99325;-71
2024/01/09 08:27:23;;;;;;;2.97;2.15;;;;;;;;;;5050954;27;99703;-71
2024/01/09 08:29:49;;;;;;;3.42;2.75;;;;;;;;;;5049119;27;99775;-71
2024/01/09 08:32:18;;;;;;;2.30;2.05;;;;;;;;;;5061077;27;98736;-71
2024/01/09 08:34:44;;;;;;;2.90;2.70;;;;;;;;;;5053065;27;98616;-71
2024/01/09 08:37:11;;;;;;;1.52;1.52;;;;;;;;;;5046329;27;99716;-71
2024/01/09 08:39:37;;;;;;;2.08;1.98;;;;;;;;;;5048259;27;98302;-72
2024/01/09 08:42:04;;;;;;;2.58;2.40;;;;;;;;;;5048131;27;99460;-72
2024/01/09 08:44:30;;;;;;;3.22;2.92;;;;;;;;;;5050781;27;100295;-72
2024/01/09 08:46:56;;;;;;;2.47;2.35;;;;;;;;;;5046391;27;98704;-72
2024/01/09 08:49:23;;;;;;;4.90;2.22;;;;;;;;;;5047926;27;99288;-71
2024/01/09 08:51:49;;;;;;;2.22;2.13;;;;;;;;;;5047290;27;98411;-71
2024/01/09 08:54:16;;;;;;;1.63;1.63;;;;;;;;;;5048327;27;99633;-72
2024/01/09 08:56:42;;;;;;;3.33;2.67;;;;;;;;;;5047693;27;98879;-72
2024/01/09 08:59:09;;;;;;;2.95;2.67;;;;;;;;;;5046905;27;98269;-72
2024/01/09 09:01:35;;;;;;;3.13;2.72;;;;;;;;;;5047189;27;99439;-72
2024/01/09 09:04:02;;;;;;;2.65;2.45;;;;;;;;;;5047444;27;100763;-72
2024/01/09 09:06:29;;;;;;;2.30;2.10;;;;;;;;;;5050207;27;99057;-72
2024/01/09 09:08:56;;;;;;;2.75;2.55;;;;;;;;;;5047027;27;99015;-72
2024/01/09 09:11:22;;;;;;;3.25;3.05;;;;;;;;;;5047868;27;98170;-72
2024/01/09 09:13:49;;;;;;;3.42;3.13;;;;;;;;;;5047199;27;99657;-71
2024/01/09 09:16:15;;;;;;;2.13;2.03;;;;;;;;;;5047035;27;99958;-72
2024/01/09 09:18:43;;;;;;;3.28;3.08;;;;;;;;;;5048110;27;98366;-71
2024/01/09 09:21:10;;;;;;;24.02;2.55;;;;;;;;;;5046969;27;99680;-71
2024/01/09 09:23:36;;;;;;;1.92;1.83;;;;;;;;;;5047719;27;99846;-72
2024/01/09 09:26:03;;;;;;;2.42;2.17;;;;;;;;;;5045930;27;98272;-71
2024/01/09 09:28:30;;;;;;;1.88;1.83;;;;;;;;;;5050122;27;99283;-72
2024/01/09 09:31:10;;;;;;;2.38;2.17;;;;;;;;;;5047707;27;98110;-72
2024/01/09 09:33:37;;;;;;;2.15;2.05;;;;;;;;;;5046896;27;99416;-71
2024/01/09 09:36:07;;;;;;;2.28;2.17;;;;;;;;;;5047117;27;100010;-71
2024/01/09 09:38:33;;;;;;;3.13;2.85;;;;;;;;;;5047380;27;98237;-71
2024/01/09 09:41:14;;;;;;;2.22;2.10;;;;;;;;;;5045885;27;98996;-71
2024/01/09 09:43:42;;;;;;;2.55;2.42;;;;;;;;;;5047218;27;98888;-71
2024/01/09 09:46:17;;;;;;;2.33;2.13;;;;;;;;;;5046465;27;98314;-71
2024/01/09 09:48:43;;;;;;;2.45;2.33;;;;;;;;;;5046775;27;99764;-70
2024/01/09 09:51:10;;;;;;;2.45;2.35;;;;;;;;;;5049434;27;100076;-71
2024/01/09 09:53:37;;;;;;;2.55;2.35;;;;;;;;;;5047504;27;99448;-73
2024/01/09 09:56:03;;;;;;;4.20;2.55;;;;;;;;;;5045729;27;99068;-71
2024/01/09 09:58:31;;;;;;;2.55;2.30;;;;;;;;;;5067222;27;98342;-71
2024/01/09 10:00:59;;;;;;;20.58;9.70;;;;;;;;;;5070907;27;99563;-71
2024/01/09 10:03:35;;;;;;;3.03;2.35;;;;;;;;;;5069962;27;99370;-71
2024/01/09 10:06:04;;;;;;;1.15;1.15;;;;;;;;;;5071022;27;98265;-71
2024/01/09 10:08:33;;;;;;;2.05;1.95;;;;;;;;;;5070773;27;99582;-71
2024/01/09 10:11:00;;;;;;;5.65;2.42;;;;;;;;;;5073343;27;98625;-72
2024/01/09 10:13:27;;;;;;;2.92;2.53;;;;;;;;;;5071167;27;99616;-71
2024/01/09 10:15:57;;;;;;;3.92;2.35;;;;;;;;;;5068886;27;99792;-73
2024/01/09 10:18:27;;;;;;;1.67;1.67;;;;;;;;;;5070631;27;98688;-73
2024/01/09 10:20:54;;;;;;;2.00;1.90;;;;;;;;;;5070908;27;99344;-72
2024/01/09 10:23:20;;;;;;;3.15;2.67;;;;;;;;;;5069842;27;100173;-71
2024/01/09 10:25:47;;;;;;;2.53;2.33;;;;;;;;;;5070363;27;98297;-71
2024/01/09 10:28:19;;;;;;;2.20;2.10;;;;;;;;;;5070185;27;98578;-71
2024/01/09 10:30:46;;;;;;;1.73;1.63;;;;;;;;;;5069822;27;100013;-72
2024/01/09 10:33:13;;;;;;;1.50;1.40;;;;;;;;;;5073958;27;98195;-72
2024/01/09 10:35:40;;;;;;;1.38;1.35;;;;;;;;;;5070561;27;99974;-71
2024/01/09 10:38:09;;;;;;;9.73;1.40;;;;;;;;;;5069220;27;98354;-72
2024/01/09 10:40:36;;;;;;;2.08;1.98;;;;;;;;;;5069953;27;99561;-72
2024/01/09 10:43:06;;;;;;;1.60;1.60;;;;;;;;;;5070014;27;99828;-72
2024/01/09 10:45:32;;;;;;;2.67;2.47;;;;;;;;;;5069606;27;98234;-71
2024/01/09 10:47:59;;;;;;;1.58;1.50;;;;;;;;;;5070203;27;99828;-72
2024/01/09 10:50:26;;;;;;;2.22;2.08;;;;;;;;;;5070245;27;100281;-72
2024/01/09 10:52:52;;;;;;;1.50;1.50;;;;;;;;;;5069594;27;98299;-72
2024/01/09 10:55:21;;;;;;;3.38;2.03;;;;;;;;;;5073151;27;99405;-72
2024/01/09 10:57:48;;;;;;;4.43;4.13;;;;;;;;;;5069394;27;98257;-72
2024/01/09 11:00:14;;;;;;;2.13;2.03;;;;;;;;;;5069945;27;99873;-72
2024/01/09 11:02:41;;;;;;;2.35;2.15;;;;;;;;;;5070131;27;100045;-71
2024/01/09 11:05:10;;;;;;;1.42;1.42;;;;;;;;;;5068585;27;98328;-71
2024/01/09 11:07:37;;;;;;;3.88;1.67;;;;;;;;;;5069998;27;99658;-71
2024/01/09 11:10:04;;;;;;;2.15;2.00;;;;;;;;;;5068655;27;100268;-72
2024/01/09 11:12:32;;;;;;;2.10;1.90;;;;;;;;;;5068926;27;98512;-72
2024/01/09 11:15:05;;;;;;;2.20;2.10;;;;;;;;;;5069516;27;99334;-72
2024/01/09 11:17:31;;;;;;;;;;;;;;;;;;5073209;27;98967;-72
2024/01/09 11:19:58;;;;;;;2.42;1.30;;;;;;;;;;5068135;27;128876;-72
2024/01/09 11:22:32;;;;;;;2.10;1.42;;;;;;;;;;5069289;27;99253;-71
2024/01/09 11:25:02;;;;;;;2.70;1.55;;;;;;;;;;5069341;27;98190;-72
2024/01/09 11:27:37;;;;;;;1.80;1.65;;;;;;;;;;5069111;27;99491;-72
2024/01/09 11:30:05;;;;;;;1.98;1.88;;;;;;;;;;5068625;27;99840;-71
2024/01/09 11:32:33;;;;;;;2.90;2.70;;;;;;;;;;5069864;27;98289;-72
2024/01/09 11:35:10;;;;;;;2.28;2.10;;;;;;;;;;5068723;27;99354;-72
2024/01/09 11:37:38;;;;;;;2.97;2.78;;;;;;;;;;5069412;27;99978;-71
2024/01/09 11:40:11;;;;;;;1.30;1.30;;;;;;;;;;5071963;27;98542;-72
2024/01/09 11:42:37;;;;;;;1.60;1.55;;;;;;;;;;5069438;27;99914;-71
2024/01/09 11:45:08;;;;;;;2.13;1.95;;;;;;;;;;5069303;27;98098;-70
2024/01/09 11:47:38;;;;;;;1.67;1.58;;;;;;;;;;5069029;27;99138;-71
2024/01/09 11:50:05;;;;;;;2.20;1.98;;;;;;;;;;5068892;27;99985;-71
2024/01/09 11:52:32;;;;;;;2.50;2.30;;;;;;;;;;5069619;27;98306;-71
2024/01/09 11:54:59;;;;;;;1.08;1.08;;;;;;;;;;5067488;27;99399;-72
2024/01/09 11:57:25;;;;;;;2.08;1.98;;;;;;;;;;5064649;27;99935;-71
2024/01/09 11:59:51;;;;;;;2.13;1.92;;;;;;;;;;5048988;27;98217;-73
2024/01/09 12:02:18;;;;;;;4.03;2.58;;;;;;;;;;5050947;27;99511;-72
2024/01/09 12:04:45;;;;;;;1.75;1.65;;;;;;;;;;5048760;27;98220;-72
2024/01/09 12:07:12;;;;;;;2.10;2.00;;;;;;;;;;5048419;27;99676;-72
2024/01/09 12:09:39;;;;;;;1.85;1.75;;;;;;;;;;5047803;27;100240;-72
2024/01/09 12:12:09;;;;;;;2.08;1.95;;;;;;;;;;5048788;27;98341;-72
2024/01/09 12:14:36;;;;;;;2.00;1.90;;;;;;;;;;5048890;27;99613;-71
2024/01/09 12:17:27;;;;;;;6.18;2.17;;;;;;;;;;5046887;27;100217;-71
2024/01/09 12:19:53;;;;;;;1.05;1.05;;;;;;;;;;5047831;27;98280;-72
2024/01/09 12:22:20;;;;;;;1.60;1.60;;;;;;;;;;5050694;27;99496;-72
2024/01/09 12:24:49;;;;;;;1.55;1.45;;;;;;;;;;5048777;27;98243;-72
2024/01/09 12:27:15;;;;;;;2.78;2.17;;;;;;;;;;5048363;27;99708;-73
2024/01/09 12:29:42;;;;;;;1.60;1.60;;;;;;;;;;5047779;27;100216;-72
2024/01/09 12:32:09;;;;;;;2.35;2.17;;;;;;;;;;5048242;27;98253;-72
2024/01/09 12:34:36;;;;;;;1.67;1.58;;;;;;;;;;5048812;27;99298;-73
2024/01/09 12:37:05;;;;;;;1.90;1.80;;;;;;;;;;5047370;27;99847;-73
2024/01/09 12:39:33;;;;;;;2.85;2.65;;;;;;;;;;5048397;27;98304;-72
2024/01/09 12:42:06;;;;;;;1.17;1.17;;;;;;;;;;5047781;27;99803;-72
2024/01/09 12:44:32;;;;;;;;;;;;;;;;;;5050320;27;100022;-72
2024/01/09 12:47:00;;;;;;;1.48;1.48;;;;;;;;;;5047176;27;129201;-73
2024/01/09 12:49:26;;;;;;;1.83;1.75;;;;;;;;;;5047803;27;99040;-73
2024/01/09 12:51:59;;;;;;;1.60;1.50;;;;;;;;;;5046972;27;98459;-73
2024/01/09 12:54:25;;;;;;;1.70;1.63;;;;;;;;;;5048055;27;99565;-72
2024/01/09 12:56:54;;;;;;;1.60;1.60;;;;;;;;;;5048093;27;99930;-71
2024/01/09 12:59:26;;;;;;;2.08;1.98;;;;;;;;;;5047467;27;98380;-71
2024/01/09 13:01:54;;;;;;;2.08;1.83;;;;;;;;;;5048450;27;99402;-72
2024/01/09 13:04:20;;;;;;;2.28;2.15;;;;;;;;;;5047089;27;100140;-72
2024/01/09 13:06:48;;;;;;;2.20;2.10;;;;;;;;;;5050923;27;98286;-72
2024/01/09 13:09:16;;;;;;;1.40;1.40;;;;;;;;;;5046889;27;100315;-72
2024/01/09 13:11:43;;;;;;;3.35;1.65;;;;;;;;;;5047020;27;98374;-72
2024/01/09 13:14:11;;;;;;;2.03;1.90;;;;;;;;;;5047102;27;98524;-72
2024/01/09 13:16:37;;;;;;;2.30;2.20;;;;;;;;;;5047130;27;100033;-72
2024/01/09 13:19:04;;;;;;;2.00;1.90;;;;;;;;;;5046199;27;98311;-72
2024/01/09 13:21:31;;;;;;;1.58;1.58;;;;;;;;;;5047629;27;99794;-72
2024/01/09 13:23:58;;;;;;;3.97;2.70;;;;;;;;;;5046885;27;99173;-72
2024/01/09 13:26:30;;;;;;;1.88;1.77;;;;;;;;;;5047679;27;98528;-72
2024/01/09 13:28:57;;;;;;;2.15;2.05;;;;;;;;;;5051318;27;98310;-72
2024/01/09 13:31:26;;;;;;;1.50;1.42;;;;;;;;;;5063735;27;98198;-72
2024/01/09 13:33:52;;;;;;;1.77;1.75;;;;;;;;;;5067342;27;98845;-72
2024/01/09 13:36:19;;;;;;;2.22;1.92;;;;;;;;;;5070602;27;98944;-70
2024/01/09 13:38:45;;;;;;;2.70;2.20;;;;;;;;;;5056715;27;98255;-73
2024/01/09 13:41:15;;;;;;;2.17;2.08;;;;;;;;;;5059268;27;99943;-72
2024/01/09 13:43:42;;;;;;;2.15;2.05;;;;;;;;;;5066160;27;99962;-71
2024/01/09 13:46:14;;;;;;;3.13;1.75;;;;;;;;;;5057953;27;99434;-72
2024/01/09 13:48:42;;;;;;;1.40;1.40;;;;;;;;;;5053385;27;100344;-72
2024/01/09 13:51:09;;;;;;;2.17;2.08;;;;;;;;;;5068178;27;100080;-72
2024/01/09 13:53:55;;;;;;;2.28;1.60;;;;;;;;;;5057704;27;99917;-73
2024/01/09 13:56:23;;;;;;;2.20;2.10;;;;;;;;;;5057075;27;99886;-73
2024/01/09 13:58:51;;;;;;;1.55;1.52;;;;;;;;;;5057707;27;99088;-72
2024/01/09 14:01:18;;;;;;;1.90;1.80;;;;;;;;;;5061861;27;99399;-72
2024/01/09 14:03:59;;;;;;;2.00;1.90;;;;;;;;;;5060925;27;99377;-73
2024/01/09 14:06:29;;;;;;;2.58;2.03;;;;;;;;;;5058205;27;99370;-73
2024/01/09 14:08:57;;;;;;;2.03;1.90;;;;;;;;;;5058345;27;99667;-72
2024/01/09 14:11:24;;;;;;;1.95;1.85;;;;;;;;;;5050591;27;99019;-73
2024/01/09 14:13:50;;;;;;;1.83;1.73;;;;;;;;;;5059718;27;101371;-74
2024/01/09 14:16:17;;;;;;;2.30;2.10;;;;;;;;;;5059823;27;99859;-74
2024/01/09 14:18:44;;;;;;;3.65;2.22;;;;;;;;;;5049389;27;98974;-71
2024/01/09 14:21:11;;;;;;;2.45;1.70;;;;;;;;;;5053627;27;99481;-71
2024/01/09 14:23:37;;;;;;;2.33;2.00;;;;;;;;;;5062745;27;99272;-72
2024/01/09 14:26:04;;;;;;;2.10;2.00;;;;;;;;;;5059680;27;99614;-72
2024/01/09 14:28:31;;;;;;;1.52;1.50;;;;;;;;;;5053648;27;99457;-72
2024/01/09 14:30:57;;;;;;;1.73;1.60;;;;;;;;;;5047828;27;99256;-71
2024/01/09 14:33:24;;;;;;;2.13;2.03;;;;;;;;;;5057562;27;98489;-73
2024/01/09 14:35:51;;;;;;;1.80;1.70;;;;;;;;;;5052373;27;99844;-72
2024/01/09 14:38:18;;;;;;;1.80;1.70;;;;;;;;;;5064537;27;98302;-72
2024/01/09 14:40:44;;;;;;;2.00;1.90;;;;;;;;;;5060118;27;99782;-73